createdAt,value
2023-04-16T00:00:05.148Z,99396.91
2023-04-16T00:01:12.625Z,99392.31
2023-04-16T00:02:15.850Z,99395.53
2023-04-16T00:03:18.010Z,99391.91
2023-04-16T00:04:20.061Z,99395.31
2023-04-16T00:05:22.076Z,99394.91
2023-04-16T00:06:24.380Z,99395.72
2023-04-16T00:07:26.603Z,99389.13
2023-04-16T00:08:28.437Z,99392.72
2023-04-16T00:09:30.364Z,99386.72
2023-04-16T00:10:32.208Z,99389.72
2023-04-16T00:11:34.044Z,99392.72
2023-04-16T00:12:36.550Z,99386.72
2023-04-16T00:13:38.519Z,99384.34
2023-04-16T00:14:40.621Z,99388.91
2023-04-16T00:15:42.517Z,99386.75
2023-04-16T00:16:44.555Z,99387.12
2023-04-16T00:17:47.073Z,99390.31
2023-04-16T00:18:49.002Z,99383.53
2023-04-16T00:19:50.996Z,99391.91
2023-04-16T00:20:53.520Z,99390.72
2023-04-16T00:21:55.527Z,99393.31
2023-04-16T00:22:57.877Z,99390.31
2023-04-16T00:23:59.743Z,99383.31
2023-04-16T00:25:01.666Z,99391.91
2023-04-16T00:26:03.932Z,99393.91
2023-04-16T00:27:06.490Z,99393.09
2023-04-16T00:28:10.044Z,99396.28
2023-04-16T00:29:13.089Z,99397.91
2023-04-16T00:30:15.104Z,99393.69
2023-04-16T00:31:17.056Z,99396.72
2023-04-16T00:32:19.126Z,99392.13
2023-04-16T00:33:21.687Z,99399.13
2023-04-16T00:34:23.661Z,99392.72
2023-04-16T00:35:25.653Z,99392.53
2023-04-16T00:36:28.688Z,99390.72
2023-04-16T00:37:30.683Z,99390.09
2023-04-16T00:38:32.952Z,99399.09
2023-04-16T00:39:35.187Z,99395.09
2023-04-16T00:40:37.246Z,99393.91
2023-04-16T00:41:39.190Z,99404.94
2023-04-16T00:42:41.397Z,99391.28
2023-04-16T00:43:43.683Z,99396.28
2023-04-16T00:44:45.516Z,99393.50
2023-04-16T00:45:47.614Z,99394.50
2023-04-16T00:46:49.555Z,99392.28
2023-04-16T00:47:51.537Z,99393.09
2023-04-16T00:48:55.494Z,99382.88
2023-04-16T00:49:57.501Z,99385.88
2023-04-16T00:51:01.704Z,99390.63
2023-04-16T00:52:03.898Z,99386.25
2023-04-16T00:53:05.859Z,99383.25
2023-04-16T00:54:08.090Z,99391.25
2023-04-16T00:55:13.328Z,99385.00
2023-04-16T00:56:17.542Z,99385.63
2023-04-16T00:57:21.122Z,99383.84
2023-04-16T00:58:23.633Z,99388.69
2023-04-16T00:59:26.995Z,99382.63
2023-04-16T01:00:29.463Z,99381.84
2023-04-16T01:01:31.390Z,99387.84
2023-04-16T01:02:34.328Z,99386.81
2023-04-16T01:03:43.105Z,99383.81
2023-04-16T01:04:45.634Z,99384.25
2023-04-16T01:05:49.426Z,99386.19
2023-04-16T01:06:51.476Z,99384.59
2023-04-16T01:07:53.518Z,99381.41
2023-04-16T01:08:55.423Z,99379.62
2023-04-16T01:09:57.787Z,99379.44
2023-04-16T01:10:59.723Z,99384.81
2023-04-16T01:12:02.165Z,99378.59
2023-04-16T01:13:04.071Z,99386.19
2023-04-16T01:14:06.041Z,99381.81
2023-04-16T01:15:08.729Z,99382.63
2023-04-16T01:16:12.333Z,99380.41
2023-04-16T01:17:14.285Z,99385.47
2023-04-16T01:18:17.416Z,99384.66
2023-04-16T01:19:19.352Z,99391.84
2023-04-16T01:20:21.642Z,99387.03
2023-04-16T01:21:23.462Z,99393.03
2023-04-16T01:22:25.308Z,99387.06
2023-04-16T01:23:27.181Z,99392.06
2023-04-16T01:24:29.082Z,99391.09
2023-04-16T01:25:31.306Z,99385.06
2023-04-16T01:26:33.323Z,99392.25
2023-04-16T01:27:35.493Z,99385.25
2023-04-16T01:28:37.412Z,99384.88
2023-04-16T01:29:39.410Z,99381.84
2023-04-16T01:30:42.364Z,99376.84
2023-04-16T01:31:46.702Z,99385.84
2023-04-16T01:32:48.871Z,99383.47
2023-04-16T01:33:51.500Z,99395.28
2023-04-16T01:34:53.385Z,99402.06
2023-04-16T01:35:56.157Z,99401.84
2023-04-16T01:36:58.323Z,99397.88
2023-04-16T01:38:00.244Z,99398.47
2023-04-16T01:39:02.176Z,99400.06
2023-04-16T01:40:04.356Z,99395.06
2023-04-16T01:41:06.744Z,99397.25
2023-04-16T01:42:10.970Z,99397.06
2023-04-16T01:43:12.908Z,99394.25
2023-04-16T01:44:15.836Z,99396.25
2023-04-16T01:45:17.822Z,99399.47
2023-04-16T01:46:31.178Z,99402.28
2023-04-16T01:47:33.151Z,99405.09
2023-04-16T01:48:35.059Z,99408.09
2023-04-16T01:49:37.054Z,99399.09
2023-04-16T01:50:39.002Z,99398.91
2023-04-16T01:51:42.056Z,99399.09
2023-04-16T01:52:44.027Z,99398.47
2023-04-16T01:53:45.886Z,99393.28
2023-04-16T01:54:48.127Z,99399.72
2023-04-16T01:55:49.969Z,99400.09
2023-04-16T01:56:52.497Z,99390.50
2023-04-16T01:57:54.498Z,99394.28
2023-04-16T01:58:59.502Z,99394.69
2023-04-16T02:00:04.366Z,99399.53
2023-04-16T02:01:06.614Z,99397.53
2023-04-16T02:02:14.757Z,99393.72
2023-04-16T02:03:17.752Z,99397.75
2023-04-16T02:04:19.767Z,99394.31
2023-04-16T02:05:21.706Z,99394.72
2023-04-16T02:06:23.650Z,99401.94
2023-04-16T02:07:26.042Z,99403.94
2023-04-16T02:08:27.984Z,99400.31
2023-04-16T02:09:29.832Z,99409.13
2023-04-16T02:10:32.012Z,99405.53
2023-04-16T02:11:34.309Z,99409.72
2023-04-16T02:12:36.501Z,99405.53
2023-04-16T02:13:38.338Z,99405.53
2023-04-16T02:14:40.538Z,99404.53
2023-04-16T02:15:47.450Z,99409.53
2023-04-16T02:16:49.884Z,99410.50
2023-04-16T02:17:56.821Z,99415.34
2023-04-16T02:18:59.898Z,99408.75
2023-04-16T02:20:05.691Z,99412.72
2023-04-16T02:21:08.472Z,99411.53
2023-04-16T02:22:10.569Z,99420.75
2023-04-16T02:23:15.040Z,99420.91
2023-04-16T02:24:18.507Z,99417.94
2023-04-16T02:25:20.847Z,99426.12
2023-04-16T02:26:22.852Z,99425.16
2023-04-16T02:27:25.044Z,99418.34
2023-04-16T02:28:27.864Z,99423.31
2023-04-16T02:29:30.312Z,99422.72
2023-04-16T02:30:34.894Z,99426.31
2023-04-16T02:31:38.455Z,99423.53
2023-04-16T02:32:41.294Z,99423.94
2023-04-16T02:33:43.701Z,99427.13
2023-04-16T02:34:46.000Z,99423.91
2023-04-16T02:35:48.705Z,99417.72
2023-04-16T02:36:50.559Z,99417.91
2023-04-16T02:37:52.472Z,99419.34
2023-04-16T02:38:54.403Z,99418.91
2023-04-16T02:39:57.837Z,99417.09
2023-04-16T02:40:59.685Z,99423.47
2023-04-16T02:42:02.568Z,99418.47
2023-04-16T02:43:04.574Z,99413.87
2023-04-16T02:44:06.447Z,99409.50
2023-04-16T02:45:09.393Z,99417.91
2023-04-16T02:46:11.374Z,99416.06
2023-04-16T02:47:13.324Z,99417.81
2023-04-16T02:48:15.440Z,99415.47
2023-04-16T02:49:17.401Z,99424.78
2023-04-16T02:50:19.689Z,99421.66
2023-04-16T02:51:21.589Z,99416.59
2023-04-16T02:52:23.516Z,99416.13
2023-04-16T02:53:25.452Z,99412.09
2023-04-16T02:54:27.336Z,99415.69
2023-04-16T02:55:29.595Z,99408.69
2023-04-16T02:56:31.665Z,99412.09
2023-04-16T02:57:33.988Z,99408.91
2023-04-16T02:58:35.916Z,99411.28
2023-04-16T02:59:37.805Z,99410.88
2023-04-16T03:00:40.014Z,99418.50
2023-04-16T03:01:41.985Z,99408.56
2023-04-16T03:02:44.471Z,99416.56
2023-04-16T03:03:46.477Z,99413.97
2023-04-16T03:04:48.477Z,99416.34
2023-04-16T03:05:50.961Z,99413.75
2023-04-16T03:06:52.817Z,99413.97
2023-04-16T03:07:56.807Z,99415.81
2023-04-16T03:08:58.704Z,99415.41
2023-04-16T03:10:00.741Z,99413.41
2023-04-16T03:11:02.929Z,99414.75
2023-04-16T03:12:05.161Z,99410.97
2023-04-16T03:13:07.510Z,99410.66
2023-04-16T03:14:09.417Z,99414.66
2023-04-16T03:15:11.581Z,99412.66
2023-04-16T03:16:13.762Z,99424.06
2023-04-16T03:17:15.921Z,99418.66
2023-04-16T03:18:17.841Z,99420.84
2023-04-16T03:19:19.801Z,99421.87
2023-04-16T03:20:21.705Z,99426.69
2023-04-16T03:21:23.941Z,99424.25
2023-04-16T03:22:25.815Z,99419.47
2023-04-16T03:23:28.462Z,99428.81
2023-04-16T03:24:30.347Z,99431.84
2023-04-16T03:25:32.300Z,99427.00
2023-04-16T03:26:34.742Z,99428.41
2023-04-16T03:27:36.650Z,99427.78
2023-04-16T03:28:38.847Z,99433.62
2023-04-16T03:29:41.345Z,99432.62
2023-04-16T03:30:43.596Z,99434.59
2023-04-16T03:31:45.819Z,99439.03
2023-04-16T03:32:47.907Z,99442.44
2023-04-16T03:33:50.755Z,99448.16
2023-04-16T03:34:53.055Z,99444.59
2023-04-16T03:35:58.714Z,99454.59
2023-04-16T03:37:01.527Z,99452.63
2023-04-16T03:38:03.550Z,99455.41
2023-04-16T03:39:05.626Z,99460.00
2023-04-16T03:40:08.338Z,99465.72
2023-04-16T03:41:10.232Z,99460.19
2023-04-16T03:42:12.407Z,99465.41
2023-04-16T03:43:14.280Z,99476.16
2023-04-16T03:44:16.291Z,99469.34
2023-04-16T03:45:18.610Z,99481.47
2023-04-16T03:46:21.154Z,99471.75
2023-04-16T03:47:23.786Z,99475.75
2023-04-16T03:48:26.769Z,99477.53
2023-04-16T03:49:28.862Z,99476.09
2023-04-16T03:50:31.962Z,99477.44
2023-04-16T03:51:34.512Z,99477.88
2023-04-16T03:52:36.726Z,99478.88
2023-04-16T03:53:38.636Z,99476.84
2023-04-16T03:54:40.517Z,99479.28
2023-04-16T03:55:43.308Z,99472.53
2023-04-16T03:56:45.568Z,99471.75
2023-04-16T03:57:47.783Z,99478.97
2023-04-16T03:58:50.295Z,99489.75
2023-04-16T03:59:53.717Z,99484.16
2023-04-16T04:00:56.268Z,99485.69
2023-04-16T04:01:59.068Z,99492.53
2023-04-16T04:03:01.330Z,99487.97
2023-04-16T04:04:03.681Z,99490.41
2023-04-16T04:05:06.219Z,99488.56
2023-04-16T04:06:08.917Z,99488.63
2023-04-16T04:07:11.202Z,99484.16
2023-04-16T04:08:13.167Z,99491.56
2023-04-16T04:09:16.396Z,99493.81
2023-04-16T04:10:18.344Z,99488.66
2023-04-16T04:11:20.320Z,99491.25
2023-04-16T04:12:22.479Z,99482.66
2023-04-16T04:13:24.384Z,99490.47
2023-04-16T04:14:26.625Z,99489.03
2023-04-16T04:15:28.432Z,99485.25
2023-04-16T04:16:31.592Z,99488.66
2023-04-16T04:17:34.204Z,99488.44
2023-04-16T04:18:37.009Z,99485.78
2023-04-16T04:19:47.101Z,99483.59
2023-04-16T04:20:57.186Z,99483.81
2023-04-16T04:21:59.344Z,99482.44
2023-04-16T04:23:01.531Z,99490.81
2023-04-16T04:24:03.686Z,99486.84
2023-04-16T04:25:10.157Z,99495.78
2023-04-16T04:26:12.136Z,99486.62
2023-04-16T04:27:14.558Z,99488.66
2023-04-16T04:28:17.111Z,99493.47
2023-04-16T04:29:19.015Z,99493.06
2023-04-16T04:30:21.152Z,99492.06
2023-04-16T04:31:23.110Z,99490.81
2023-04-16T04:32:25.052Z,99490.56
2023-04-16T04:33:27.775Z,99490.94
2023-04-16T04:34:29.768Z,99490.37
2023-04-16T04:35:32.618Z,99485.69
2023-04-16T04:36:34.963Z,99495.44
2023-04-16T04:37:36.950Z,99495.03
2023-04-16T04:38:40.609Z,99489.87
2023-04-16T04:39:42.555Z,99494.69
2023-04-16T04:40:44.569Z,99496.50
2023-04-16T04:41:46.521Z,99499.53
2023-04-16T04:42:48.490Z,99505.69
2023-04-16T04:43:50.826Z,99505.50
2023-04-16T04:44:52.904Z,99508.31
2023-04-16T04:45:56.259Z,99516.28
2023-04-16T04:46:58.145Z,99517.50
2023-04-16T04:48:00.136Z,99512.31
2023-04-16T04:49:02.441Z,99515.53
2023-04-16T04:50:04.554Z,99519.78
2023-04-16T04:51:07.163Z,99512.78
2023-04-16T04:52:09.224Z,99511.16
2023-04-16T04:53:11.205Z,99513.94
2023-04-16T04:54:13.462Z,99518.78
2023-04-16T04:55:18.062Z,99513.16
2023-04-16T04:56:19.907Z,99516.38
2023-04-16T04:57:21.779Z,99515.38
2023-04-16T04:58:26.212Z,99514.75
2023-04-16T04:59:28.715Z,99514.19
2023-04-16T05:00:31.708Z,99515.16
2023-04-16T05:01:34.100Z,99514.38
2023-04-16T05:02:36.419Z,99517.97
2023-04-16T05:03:38.524Z,99513.56
2023-04-16T05:04:40.983Z,99520.97
2023-04-16T05:05:42.891Z,99519.78
2023-04-16T05:06:44.735Z,99520.75
2023-04-16T05:07:46.581Z,99520.78
2023-04-16T05:08:48.424Z,99517.19
2023-04-16T05:09:50.838Z,99523.56
2023-04-16T05:10:52.835Z,99520.78
2023-04-16T05:11:54.795Z,99524.78
2023-04-16T05:12:57.153Z,99521.16
2023-04-16T05:13:59.032Z,99519.19
2023-04-16T05:15:01.279Z,99514.38
2023-04-16T05:16:03.232Z,99515.97
2023-04-16T05:17:05.362Z,99509.97
2023-04-16T05:18:07.321Z,99507.78
2023-04-16T05:19:09.424Z,99506.75
2023-04-16T05:20:12.302Z,99502.16
2023-04-16T05:21:19.612Z,99503.97
2023-04-16T05:22:28.430Z,99510.78
2023-04-16T05:23:30.925Z,99501.16
2023-04-16T05:24:36.199Z,99517.78
2023-04-16T05:25:38.646Z,99514.19
2023-04-16T05:26:40.574Z,99524.00
2023-04-16T05:27:42.421Z,99522.00
2023-04-16T05:28:44.296Z,99519.19
2023-04-16T05:29:46.322Z,99524.00
2023-04-16T05:30:48.720Z,99527.19
2023-04-16T05:31:50.905Z,99540.38
2023-04-16T05:32:53.203Z,99545.22
2023-04-16T05:33:55.148Z,99537.59
2023-04-16T05:35:00.150Z,99543.97
2023-04-16T05:36:02.402Z,99545.97
2023-04-16T05:37:04.259Z,99548.38
2023-04-16T05:38:06.597Z,99547.19
2023-04-16T05:39:08.984Z,99556.41
2023-04-16T05:40:13.562Z,99557.38
2023-04-16T05:41:15.951Z,99550.75
2023-04-16T05:42:18.004Z,99551.75
2023-04-16T05:43:20.058Z,99551.09
2023-04-16T05:44:21.956Z,99554.66
2023-04-16T05:45:24.490Z,99547.81
2023-04-16T05:46:27.897Z,99549.03
2023-04-16T05:47:30.048Z,99545.06
2023-04-16T05:48:32.027Z,99552.28
2023-04-16T05:49:33.963Z,99549.25
2023-04-16T05:50:36.692Z,99549.44
2023-04-16T05:51:38.831Z,99547.44
2023-04-16T05:52:40.807Z,99546.59
2023-04-16T05:53:42.828Z,99547.19
2023-04-16T05:54:44.774Z,99554.38
2023-04-16T05:55:47.139Z,99548.03
2023-04-16T05:56:49.327Z,99551.06
2023-04-16T05:57:51.182Z,99561.66
2023-04-16T05:58:53.064Z,99561.50
2023-04-16T05:59:54.940Z,99558.69
2023-04-16T06:00:57.039Z,99560.09
2023-04-16T06:01:59.333Z,99562.84
2023-04-16T06:03:03.087Z,99560.81
2023-04-16T06:04:05.436Z,99565.78
2023-04-16T06:05:07.732Z,99570.31
2023-04-16T06:06:09.688Z,99563.69
2023-04-16T06:07:11.930Z,99570.81
2023-04-16T06:08:13.794Z,99564.91
2023-04-16T06:09:15.720Z,99569.66
2023-04-16T06:10:17.684Z,99562.22
2023-04-16T06:11:19.578Z,99570.56
2023-04-16T06:12:21.779Z,99563.25
2023-04-16T06:13:23.712Z,99560.00
2023-04-16T06:14:25.760Z,99569.06
2023-04-16T06:15:27.602Z,99558.37
2023-04-16T06:16:29.637Z,99562.00
2023-04-16T06:17:32.089Z,99553.19
2023-04-16T06:18:34.093Z,99556.38
2023-04-16T06:19:36.288Z,99562.69
2023-04-16T06:20:38.202Z,99563.62
2023-04-16T06:21:40.261Z,99561.19
2023-04-16T06:22:42.467Z,99560.75
2023-04-16T06:23:44.318Z,99555.03
2023-04-16T06:24:46.192Z,99557.44
2023-04-16T06:25:48.086Z,99551.19
2023-04-16T06:26:49.990Z,99555.50
2023-04-16T06:27:52.150Z,99555.12
2023-04-16T06:28:54.018Z,99563.56
2023-04-16T06:29:57.440Z,99560.22
2023-04-16T06:31:00.564Z,99558.13
2023-04-16T06:32:03.711Z,99564.44
2023-04-16T06:33:05.982Z,99563.34
2023-04-16T06:34:08.338Z,99557.19
2023-04-16T06:35:10.226Z,99549.75
2023-04-16T06:36:12.370Z,99550.38
2023-04-16T06:37:14.260Z,99549.94
2023-04-16T06:38:16.583Z,99543.25
2023-04-16T06:39:21.715Z,99553.72
2023-04-16T06:40:23.721Z,99534.38
2023-04-16T06:41:26.708Z,99547.16
2023-04-16T06:42:28.705Z,99542.88
2023-04-16T06:43:33.486Z,99544.19
2023-04-16T06:44:35.885Z,99548.03
2023-04-16T06:45:37.853Z,99542.56
2023-04-16T06:46:39.882Z,99547.69
2023-04-16T06:47:41.838Z,99542.13
2023-04-16T06:48:44.138Z,99540.22
2023-04-16T06:49:45.990Z,99543.19
2023-04-16T06:50:47.874Z,99534.66
2023-04-16T06:51:49.989Z,99537.94
2023-04-16T06:52:52.196Z,99545.69
2023-04-16T06:53:54.349Z,99537.03
2023-04-16T06:54:56.778Z,99536.69
2023-04-16T06:55:58.644Z,99541.34
2023-04-16T06:57:00.526Z,99537.47
2023-04-16T06:58:02.380Z,99536.69
2023-04-16T06:59:04.797Z,99532.91
2023-04-16T07:00:07.242Z,99534.50
2023-04-16T07:01:10.129Z,99529.72
2023-04-16T07:02:12.463Z,99527.44
2023-04-16T07:03:14.805Z,99528.47
2023-04-16T07:04:17.183Z,99529.37
2023-04-16T07:05:19.270Z,99533.47
2023-04-16T07:06:21.181Z,99535.63
2023-04-16T07:07:23.063Z,99537.13
2023-04-16T07:08:24.973Z,99535.41
2023-04-16T07:09:27.302Z,99534.38
2023-04-16T07:10:29.248Z,99535.75
2023-04-16T07:11:31.318Z,99533.12
2023-04-16T07:12:33.462Z,99538.81
2023-04-16T07:13:35.299Z,99537.53
2023-04-16T07:14:37.560Z,99541.75
2023-04-16T07:15:39.459Z,99534.22
2023-04-16T07:16:41.622Z,99551.09
2023-04-16T07:17:43.545Z,99547.19
2023-04-16T07:18:45.583Z,99543.44
2023-04-16T07:19:47.852Z,99539.66
2023-04-16T07:20:49.749Z,99542.84
2023-04-16T07:21:51.801Z,99544.88
2023-04-16T07:22:53.720Z,99549.59
2023-04-16T07:23:55.669Z,99548.91
2023-04-16T07:24:57.796Z,99550.25
2023-04-16T07:25:59.669Z,99545.50
2023-04-16T07:27:01.654Z,99548.59
2023-04-16T07:28:03.947Z,99540.47
2023-04-16T07:29:05.964Z,99537.31
2023-04-16T07:30:09.266Z,99549.53
2023-04-16T07:31:11.218Z,99543.53
2023-04-16T07:32:14.767Z,99544.13
2023-04-16T07:33:17.503Z,99546.69
2023-04-16T07:34:19.406Z,99552.31
2023-04-16T07:35:21.663Z,99547.88
2023-04-16T07:36:23.633Z,99551.69
2023-04-16T07:37:25.530Z,99552.94
2023-04-16T07:38:27.379Z,99552.47
2023-04-16T07:39:29.209Z,99548.56
2023-04-16T07:40:31.447Z,99550.00
2023-04-16T07:41:33.459Z,99548.56
2023-04-16T07:42:35.706Z,99543.72
2023-04-16T07:43:37.616Z,99547.75
2023-04-16T07:44:39.528Z,99550.81
2023-04-16T07:45:41.777Z,99545.78
2023-04-16T07:46:47.285Z,99547.50
2023-04-16T07:47:49.663Z,99544.06
2023-04-16T07:48:51.580Z,99539.62
2023-04-16T07:49:53.819Z,99539.19
2023-04-16T07:50:56.452Z,99539.03
2023-04-16T07:51:58.333Z,99542.53
2023-04-16T07:53:00.295Z,99541.66
2023-04-16T07:54:02.252Z,99548.22
2023-04-16T07:55:04.768Z,99549.84
2023-04-16T07:56:07.416Z,99557.00
2023-04-16T07:57:09.272Z,99546.91
2023-04-16T07:58:11.256Z,99550.81
2023-04-16T07:59:22.148Z,99555.25
2023-04-16T08:00:26.411Z,99552.41
2023-04-16T08:01:28.781Z,99552.34
2023-04-16T08:02:31.274Z,99550.31
2023-04-16T08:03:33.455Z,99551.31
2023-04-16T08:04:35.829Z,99549.63
2023-04-16T08:05:37.889Z,99549.13
2023-04-16T08:06:40.481Z,99540.72
2023-04-16T08:07:42.490Z,99553.47
2023-04-16T08:08:44.308Z,99544.50
2023-04-16T08:09:51.691Z,99548.50
2023-04-16T08:10:55.951Z,99541.66
2023-04-16T08:11:58.194Z,99544.84
2023-04-16T08:13:03.210Z,99540.12
2023-04-16T08:14:05.258Z,99546.59
2023-04-16T08:15:08.076Z,99547.38
2023-04-16T08:16:10.136Z,99552.66
2023-04-16T08:17:15.902Z,99547.94
2023-04-16T08:18:17.817Z,99548.00
2023-04-16T08:19:20.056Z,99554.09
2023-04-16T08:20:21.898Z,99552.78
2023-04-16T08:21:23.795Z,99556.75
2023-04-16T08:22:26.445Z,99546.47
2023-04-16T08:23:28.402Z,99549.47
2023-04-16T08:24:30.506Z,99540.69
2023-04-16T08:25:32.467Z,99542.44
2023-04-16T08:26:34.438Z,99547.72
2023-04-16T08:27:36.666Z,99549.47
2023-04-16T08:28:38.541Z,99551.75
2023-04-16T08:29:40.528Z,99545.75
2023-04-16T08:30:42.523Z,99551.75
2023-04-16T08:31:44.553Z,99560.66
2023-04-16T08:32:49.398Z,99561.44
2023-04-16T08:33:52.011Z,99555.47
2023-04-16T08:34:53.925Z,99558.13
2023-04-16T08:35:55.873Z,99561.53
2023-04-16T08:36:58.298Z,99565.44
2023-04-16T08:38:02.384Z,99564.09
2023-04-16T08:39:04.933Z,99569.25
2023-04-16T08:40:07.864Z,99571.28
2023-04-16T08:41:12.987Z,99562.59
2023-04-16T08:42:31.470Z,99573.56
2023-04-16T08:43:37.685Z,99565.81
2023-04-16T08:44:44.176Z,99566.78
2023-04-16T08:45:47.801Z,99575.78
2023-04-16T08:46:54.799Z,99579.97
2023-04-16T08:47:57.225Z,99567.75
2023-04-16T08:49:01.085Z,99579.25
2023-04-16T08:50:06.583Z,99575.69
2023-04-16T08:51:10.706Z,99578.88
2023-04-16T08:52:20.225Z,99571.41
2023-04-16T08:53:29.116Z,99579.50
2023-04-16T08:54:37.472Z,99574.84
2023-04-16T08:55:43.626Z,99581.06
2023-04-16T08:56:45.944Z,99582.13
2023-04-16T08:57:58.258Z,99586.41
2023-04-16T08:59:03.136Z,99586.81
2023-04-16T09:00:07.862Z,99586.16
2023-04-16T09:01:11.365Z,99588.53
2023-04-16T09:02:13.739Z,99579.25
2023-04-16T09:03:15.810Z,99583.41
2023-04-16T09:04:19.226Z,99590.44
2023-04-16T09:05:25.605Z,99588.00
2023-04-16T09:06:28.287Z,99590.88
2023-04-16T09:07:32.295Z,99596.41
2023-04-16T09:08:36.092Z,99603.31
2023-04-16T09:09:39.518Z,99598.38
2023-04-16T09:10:43.107Z,99599.22
2023-04-16T09:11:45.593Z,99590.81
2023-04-16T09:12:47.525Z,99602.03
2023-04-16T09:13:49.484Z,99592.66
2023-04-16T09:14:51.905Z,99598.25
2023-04-16T09:15:55.297Z,99591.38
2023-04-16T09:17:01.145Z,99600.56
2023-04-16T09:18:03.302Z,99605.53
2023-04-16T09:19:05.382Z,99597.66
2023-04-16T09:20:09.286Z,99604.41
2023-04-16T09:21:11.490Z,99606.47
2023-04-16T09:22:13.596Z,99602.56
2023-04-16T09:23:15.603Z,99599.47
2023-04-16T09:24:18.045Z,99613.16
2023-04-16T09:25:22.654Z,99607.13
2023-04-16T09:26:25.106Z,99606.94
2023-04-16T09:27:27.492Z,99614.28
2023-04-16T09:28:42.931Z,99611.41
2023-04-16T09:29:44.819Z,99608.69
2023-04-16T09:30:46.690Z,99606.06
2023-04-16T09:32:05.487Z,99606.28
2023-04-16T09:33:22.232Z,99610.81
2023-04-16T09:34:24.390Z,99612.78
2023-04-16T09:35:26.462Z,99612.56
2023-04-16T09:36:28.688Z,99612.34
2023-04-16T09:37:31.273Z,99610.09
2023-04-16T09:38:48.963Z,99614.66
2023-04-16T09:40:04.624Z,99620.84
2023-04-16T09:41:08.313Z,99612.50
2023-04-16T09:42:11.254Z,99616.22
2023-04-16T09:43:18.393Z,99623.81
2023-04-16T09:44:20.481Z,99624.12
2023-04-16T09:45:22.328Z,99622.19
2023-04-16T09:46:30.133Z,99625.66
2023-04-16T09:47:46.220Z,99637.28
2023-04-16T09:48:48.661Z,99628.88
2023-04-16T09:49:50.920Z,99625.53
2023-04-16T09:50:52.847Z,99628.41
2023-04-16T09:51:56.280Z,99635.13
2023-04-16T09:53:03.638Z,99633.00
2023-04-16T09:54:06.714Z,99633.22
2023-04-16T09:55:08.680Z,99631.16
2023-04-16T09:56:12.463Z,99638.00
2023-04-16T09:57:16.300Z,99631.62
2023-04-16T09:58:21.188Z,99637.00
2023-04-16T09:59:24.336Z,99637.34
2023-04-16T10:00:26.702Z,99638.72
2023-04-16T10:01:30.945Z,99640.38
2023-04-16T10:02:38.898Z,99632.25
2023-04-16T10:03:41.242Z,99636.75
2023-04-16T10:04:51.667Z,99635.47
2023-04-16T10:05:53.919Z,99628.13
2023-04-16T10:07:06.256Z,99629.41
2023-04-16T10:08:13.319Z,99630.81
2023-04-16T10:09:15.199Z,99629.88
2023-04-16T10:10:17.340Z,99631.22
2023-04-16T10:11:21.030Z,99623.97
2023-04-16T10:12:23.396Z,99627.47
2023-04-16T10:13:27.938Z,99625.56
2023-04-16T10:14:29.950Z,99626.94
2023-04-16T10:15:31.991Z,99624.91
2023-04-16T10:16:34.669Z,99622.41
2023-04-16T10:17:37.497Z,99617.75
2023-04-16T10:18:41.635Z,99617.03
2023-04-16T10:19:44.397Z,99625.47
2023-04-16T10:20:46.474Z,99613.84
2023-04-16T10:21:48.707Z,99613.53
2023-04-16T10:22:51.092Z,99618.50
2023-04-16T10:23:53.338Z,99610.16
2023-04-16T10:24:56.229Z,99613.16
2023-04-16T10:25:59.217Z,99608.22
2023-04-16T10:27:01.614Z,99604.34
2023-04-16T10:28:04.124Z,99602.56
2023-04-16T10:29:07.337Z,99603.34
2023-04-16T10:30:10.833Z,99604.94
2023-04-16T10:31:13.327Z,99608.81
2023-04-16T10:32:17.357Z,99605.00
2023-04-16T10:33:21.921Z,99606.84
2023-04-16T10:34:25.006Z,99605.78
2023-04-16T10:35:26.952Z,99607.97
2023-04-16T10:36:29.142Z,99597.53
2023-04-16T10:37:32.134Z,99602.25
2023-04-16T10:38:35.275Z,99599.84
2023-04-16T10:39:37.600Z,99600.41
2023-04-16T10:40:39.671Z,99597.13
2023-04-16T10:41:42.837Z,99597.13
2023-04-16T10:42:57.684Z,99599.88
2023-04-16T10:44:10.561Z,99594.16
2023-04-16T10:45:12.458Z,99593.09
2023-04-16T10:46:37.780Z,99588.47
2023-04-16T10:47:40.737Z,99592.25
2023-04-16T10:48:49.657Z,99587.00
2023-04-16T10:49:52.707Z,99588.63
2023-04-16T10:50:58.200Z,99589.31
2023-04-16T10:52:20.173Z,99592.25
2023-04-16T10:53:28.164Z,99581.22
2023-04-16T10:54:31.187Z,99586.78
2023-04-16T10:55:33.834Z,99584.97
2023-04-16T10:56:37.098Z,99583.16
2023-04-16T10:57:38.952Z,99583.44
2023-04-16T10:58:41.352Z,99582.87
2023-04-16T10:59:44.781Z,99586.34
2023-04-16T11:00:51.208Z,99579.78
2023-04-16T11:01:55.865Z,99583.47
2023-04-16T11:02:57.951Z,99586.34
2023-04-16T11:04:19.057Z,99584.22
2023-04-16T11:05:24.580Z,99583.69
2023-04-16T11:06:27.947Z,99584.69
2023-04-16T11:07:34.742Z,99582.03
2023-04-16T11:08:53.388Z,99584.47
2023-04-16T11:10:13.457Z,99592.16
2023-04-16T11:11:15.677Z,99584.22
2023-04-16T11:12:20.260Z,99582.66
2023-04-16T11:13:22.575Z,99579.44
2023-04-16T11:14:24.447Z,99579.97
2023-04-16T11:15:30.907Z,99574.69
2023-04-16T11:16:32.932Z,99576.31
2023-04-16T11:17:46.532Z,99577.09
2023-04-16T11:18:51.450Z,99574.44
2023-04-16T11:19:53.869Z,99571.84
2023-04-16T11:20:56.222Z,99578.97
2023-04-16T11:21:58.574Z,99579.50
2023-04-16T11:23:00.833Z,99575.00
2023-04-16T11:24:02.670Z,99573.41
2023-04-16T11:25:04.888Z,99580.81
2023-04-16T11:26:30.610Z,99578.69
2023-04-16T11:27:32.498Z,99572.63
2023-04-16T11:28:35.876Z,99576.81
2023-04-16T11:29:37.752Z,99578.69
2023-04-16T11:30:40.755Z,99573.94
2023-04-16T11:31:42.995Z,99575.81
2023-04-16T11:32:45.794Z,99574.19
2023-04-16T11:33:48.091Z,99577.38
2023-04-16T11:34:50.059Z,99572.63
2023-04-16T11:35:59.020Z,99574.19
2023-04-16T11:37:01.016Z,99567.88
2023-04-16T11:38:02.972Z,99575.53
2023-04-16T11:39:05.387Z,99567.34
2023-04-16T11:40:09.609Z,99571.00
2023-04-16T11:41:11.734Z,99565.72
2023-04-16T11:42:22.956Z,99572.63
2023-04-16T11:43:26.824Z,99567.34
2023-04-16T11:44:29.711Z,99561.78
2023-04-16T11:45:31.825Z,99561.78
2023-04-16T11:46:40.758Z,99565.22
2023-04-16T11:47:45.883Z,99560.97
2023-04-16T11:48:52.715Z,99554.66
2023-04-16T11:49:54.842Z,99558.34
2023-04-16T11:50:59.625Z,99563.62
2023-04-16T11:52:01.593Z,99556.75
2023-04-16T11:53:05.002Z,99559.66
2023-04-16T11:54:12.111Z,99558.09
2023-04-16T11:55:14.610Z,99556.75
2023-04-16T11:56:25.520Z,99555.69
2023-04-16T11:57:28.957Z,99555.44
2023-04-16T11:58:31.054Z,99557.81
2023-04-16T11:59:33.420Z,99557.28
2023-04-16T12:00:35.983Z,99555.69
2023-04-16T12:01:41.165Z,99547.75
2023-04-16T12:02:46.031Z,99550.38
2023-04-16T12:03:49.736Z,99550.69
2023-04-16T12:04:51.888Z,99559.66
2023-04-16T12:05:54.059Z,99551.47
2023-04-16T12:07:13.609Z,99562.59
2023-04-16T12:08:32.628Z,99554.62
2023-04-16T12:09:38.568Z,99552.81
2023-04-16T12:10:55.507Z,99553.06
2023-04-16T12:11:57.945Z,99548.56
2023-04-16T12:13:16.372Z,99549.88
2023-04-16T12:14:18.352Z,99547.75
2023-04-16T12:15:20.355Z,99549.63
2023-04-16T12:16:22.242Z,99551.47
2023-04-16T12:17:24.516Z,99546.19
2023-04-16T12:18:29.390Z,99547.75
2023-04-16T12:19:31.546Z,99550.94
2023-04-16T12:20:41.846Z,99544.59
2023-04-16T12:21:44.738Z,99548.00
2023-04-16T12:22:49.733Z,99544.00